Tropical Cyclones
[Index]
Main Index Home Page Stock Weather Photos Extreme Storms Discussion Storm News and Storm Chasing Reports Tropical Cyclones / Hurricanes / Typhoons Weather Data and Links Wild Fires / Bushfires Weather Observation Techniques Weather Picture Catalogue Tornado Pictures and Reports Stock Video Footage and DVDs for sale
Season 2015-2016 Tropical Cyclone 201516_05 Track Map
Season 2015-2016 Summaries: [BoM-AU] [JTWC-AU] [JTWC-SIO] [JTWC-SPAC] [JTWC-SH]
<<- Previous TC | BoM 2015-2016 Season | Next TC ->>

click for intensity scale information  Lat/long Grid: Show Hide

 Date Labels: Show Hide

Bureau of Meteorology Tropical Cyclone Data

Name: 201516_05
Number: 989 / 201516_05

21 Dec 2015 03:00 UTC to 01 Jan 2016 00:00 UTC

    date/time    lat    long    hPa   cat  kts
2015-12-21 03   15.6   136.0   1005         15          
2015-12-21 06   15.6   135.7   1003         15          
2015-12-21 09   15.6   136.0   1003         15          
2015-12-21 12   15.8   136.2   1003         15          
2015-12-21 15   16.4   136.2   1007         15          
2015-12-21 18   16.3   135.6   1005         15          
2015-12-21 21   16.0   134.8   1005         15          
2015-12-22 00   16.0   133.8   1007         10          
2015-12-22 03   16.0   132.9   1005         10          
2015-12-22 06   16.0   132.7   1002         10          
2015-12-22 09   15.5   132.2   1002         10          
2015-12-22 12   15.5   132.3   1003         10          
2015-12-22 15   15.5   132.3   1003         10          
2015-12-22 18   15.5   132.4   1001         10          
2015-12-22 21   14.8   132.2   1002         10          
2015-12-23 00   14.3   131.8   1003         10          
2015-12-23 03   14.0   131.7   1001         10          
2015-12-23 06   13.6   131.5    998         10          
2015-12-23 09   13.5   131.4    999         10          
2015-12-23 12   13.3   131.2   1001         10          
2015-12-23 15   13.1   131.1    997         10          
2015-12-23 18   12.5   131.2    996         10          
2015-12-23 21   12.5   131.4    997         30          
2015-12-24 00   12.6   131.7    999         30          
2015-12-24 03   13.0   132.1    998         25          
2015-12-24 06   13.4   132.3    995    1    25          
2015-12-24 09   13.8   132.3    996         25          
2015-12-24 12   14.0   132.0    997         25          
2015-12-24 15   14.1   131.2    997         25          
2015-12-24 18   14.0   131.1    994    1    25          
2015-12-24 21   14.2   131.0    994    1    25          
2015-12-25 00   14.3   131.0    995    1    25          
2015-12-25 03   13.9   131.2    996         25          
2015-12-25 06   13.9   131.5    996         25          
2015-12-25 09   14.1   131.9    996         25          
2015-12-25 12   14.1   132.3    997         25          
2015-12-25 15   14.4   132.3    999         25          
2015-12-25 18   14.6   132.5    996         25          
2015-12-25 21   14.7   132.6    997         25          
2015-12-26 00   14.7   132.7    996         25          
2015-12-26 03   14.8   133.1    997         25          
2015-12-26 06   15.1   133.3    996         25          
2015-12-26 09   15.2   133.3    996         25          
2015-12-26 12   15.3   133.5    996         25          
2015-12-26 15   15.4   133.8    997         25          
2015-12-26 18   15.4   134.0    996         25          
2015-12-26 21   15.5   134.2    998         15          
2015-12-27 00   15.4   134.6    999         15          
2015-12-27 03   15.4   135.0    998         15          
2015-12-27 06   15.7   135.6    996         15          
2015-12-27 09   15.9   135.4    997         15          
2015-12-27 12   16.0   135.8    998         15          
2015-12-27 15   15.9   136.0    998         15          
2015-12-27 18   16.0   136.1    997         15          
2015-12-27 21   16.1   136.1    997         15          
2015-12-28 00   16.2   136.1    998         15          
2015-12-28 03   16.3   136.0    998         15          
2015-12-28 06   16.4   136.0    996         15          
2015-12-28 09   16.7   135.9    996         20          
2015-12-28 12   16.9   135.9    996         20          
2015-12-28 15   17.0   136.0    997         20          
2015-12-28 18   17.0   135.9    995    1    20          
2015-12-28 21   17.1   136.0    995    1    20          
2015-12-29 00   17.2   136.0    996         20          
2015-12-29 03   17.6   136.3    996         15          
2015-12-29 06   17.8   136.3    997         20          
2015-12-29 12   18.2   137.0    998         20          
2015-12-30 00   20.5   136.5    997         20          
2015-12-31 00   22.0   136.5    999         20          
2016-01-01 00   24.5   138.5   1002         20          
Winds are 10-min average.

Tropical cyclone tracks developed by Michael Bath using data from the Bureau of Meteorology and Google Maps.


[Australian Severe Weather index] [Copyright Notice] [Email Contacts] [Search This Site] [Privacy Policy]
Document: tropical_cyclone_201516_05.htm Updated: 29 June 2017